Time;durP1;ratioP1;P1;durP2;ratioP2;P2;SDS_P1;SDS_P2;PMS_P1;PMS_P2;Temp;Humidity;BMP_temperature;BMP_pressure;BME280_temperature;BME280_humidity;BME280_pressure;Samples;Min_cycle;Max_cycle;Signal;HPM_P1;HPM_P2
2021/09/04 00:01:26;;;;;;;16.85;12.10;;;12.10;99.90;;;;;;6271464;22;20013;-89
2021/09/04 00:04:14;;;;;;;16.60;11.82;;;12.10;99.90;;;;;;6270587;22;20024;-89
2021/09/04 00:07:05;;;;;;;16.73;12.05;;;12.10;99.90;;;;;;6272287;22;20038;-90
2021/09/04 00:09:55;;;;;;;15.35;11.02;;;12.00;99.90;;;;;;6271578;22;20027;-90
2021/09/04 00:12:44;;;;;;;22.75;11.70;;;12.00;99.90;;;;;;6272168;22;20276;-89
2021/09/04 00:15:34;;;;;;;19.58;13.20;;;12.00;99.90;;;;;;6269479;22;20024;-89
2021/09/04 00:18:23;;;;;;;17.58;12.65;;;12.00;99.90;;;;;;6261525;23;20026;-89
2021/09/04 00:21:10;;;;;;;17.67;12.45;;;11.90;99.90;;;;;;6258798;22;20028;-90
2021/09/04 00:23:58;;;;;;;16.55;12.40;;;11.90;99.90;;;;;;6246180;23;20043;-89
2021/09/04 00:26:47;;;;;;;20.88;12.57;;;11.90;99.90;;;;;;6245886;23;20356;-90
2021/09/04 00:29:35;;;;;;;18.23;12.20;;;11.90;99.90;;;;;;6246848;22;20031;-91
2021/09/04 00:32:22;;;;;;;21.23;12.75;;;11.90;99.90;;;;;;6247232;22;20025;-89
2021/09/04 00:35:10;;;;;;;16.95;12.95;;;11.80;99.90;;;;;;6245524;22;20089;-91
2021/09/04 00:37:58;;;;;;;16.88;12.52;;;11.80;99.90;;;;;;6244007;23;20034;-90
2021/09/04 00:40:45;;;;;;;16.48;12.30;;;11.80;99.90;;;;;;6247260;22;20107;-89
2021/09/04 00:43:33;;;;;;;18.35;12.02;;;11.80;99.90;;;;;;6245252;23;20085;-90
2021/09/04 00:46:20;;;;;;;18.30;12.50;;;11.80;99.90;;;;;;6244439;23;20389;-90
2021/09/04 00:49:07;;;;;;;18.70;12.57;;;11.70;99.90;;;;;;6244368;23;20032;-91
2021/09/04 00:51:55;;;;;;;18.52;12.75;;;11.60;99.90;;;;;;6243690;23;20415;-90
2021/09/04 00:54:46;;;;;;;17.13;12.95;;;11.50;99.90;;;;;;6245980;22;20024;-89
2021/09/04 00:57:33;;;;;;;18.88;13.85;;;11.50;99.90;;;;;;6245580;23;20032;-89
2021/09/04 01:00:23;;;;;;;21.42;14.05;;;11.50;99.90;;;;;;6246568;23;20047;-89
2021/09/04 01:03:11;;;;;;;22.67;13.38;;;11.50;99.90;;;;;;6247698;22;20407;-89
2021/09/04 01:05:59;;;;;;;19.67;13.65;;;11.50;99.90;;;;;;6244963;23;20051;-90
2021/09/04 01:08:47;;;;;;;19.33;13.57;;;11.50;99.90;;;;;;6244819;23;20078;-89
2021/09/04 01:11:36;;;;;;;23.10;14.73;;;11.50;99.90;;;;;;6245205;22;20600;-90
2021/09/04 01:14:23;;;;;;;19.08;13.52;;;11.40;99.90;;;;;;6244041;23;20047;-91
2021/09/04 01:17:13;;;;;;;18.38;13.13;;;11.40;99.90;;;;;;6246650;22;20038;-91
2021/09/04 01:20:01;;;;;;;18.65;13.30;;;11.30;99.90;;;;;;6246503;22;20098;-88
2021/09/04 01:22:51;;;;;;;20.77;14.65;;;11.30;99.90;;;;;;6246851;22;20028;-88
2021/09/04 01:25:43;;;;;;;18.08;13.80;;;11.30;99.90;;;;;;6243911;23;20048;-89
2021/09/04 01:28:31;;;;;;;20.77;13.88;;;11.30;99.90;;;;;;6245364;23;20107;-91
2021/09/04 01:31:23;;;;;;;19.52;14.85;;;11.30;99.90;;;;;;6245201;22;20035;-89
2021/09/04 01:34:13;;;;;;;20.30;15.48;;;11.30;99.90;;;;;;6245982;22;20027;-89
2021/09/04 01:37:00;;;;;;;26.52;14.75;;;11.30;99.90;;;;;;6244752;23;20407;-90
2021/09/04 01:39:47;;;;;;;17.90;13.93;;;11.30;99.90;;;;;;6244660;23;20113;-89
2021/09/04 01:42:34;;;;;;;20.73;13.55;;;11.20;99.90;;;;;;6244017;23;20066;-90
2021/09/04 01:45:22;;;;;;;20.95;14.40;;;11.20;99.90;;;;;;6244983;23;20125;-90
2021/09/04 01:48:09;;;;;;;22.85;14.63;;;11.10;99.90;;;;;;6245555;23;20099;-90
2021/09/04 01:50:59;;;;;;;24.65;15.52;;;11.10;99.90;;;;;;6245322;23;20028;-89
2021/09/04 01:53:46;;;;;;;22.65;16.85;;;11.10;99.90;;;;;;6245018;23;20101;-88
2021/09/04 01:56:33;;;;;;;24.55;15.10;;;11.10;99.90;;;;;;6244881;23;20130;-91
2021/09/04 01:59:21;;;;;;;23.52;15.60;;;11.10;99.90;;;;;;6246871;22;20050;-90
2021/09/04 02:02:11;;;;;;;19.05;14.55;;;11.10;99.90;;;;;;6243623;23;20042;-89
2021/09/04 02:05:02;;;;;;;19.77;14.85;;;11.00;99.90;;;;;;6245799;22;20409;-88
2021/09/04 02:07:49;;;;;;;21.63;14.85;;;10.90;99.90;;;;;;6244585;22;20027;-89
2021/09/04 02:10:36;;;;;;;27.02;15.77;;;10.90;99.90;;;;;;6245930;22;20090;-90
2021/09/04 02:13:24;;;;;;;24.80;16.80;;;10.90;99.90;;;;;;6244245;23;20124;-89
2021/09/04 02:16:14;;;;;;;23.95;17.05;;;10.80;99.90;;;;;;6246494;22;20347;-92
2021/09/04 02:19:04;;;;;;;24.77;17.50;;;10.90;99.90;;;;;;6244449;23;20061;-88
2021/09/04 02:21:51;;;;;;;24.83;17.30;;;10.90;99.90;;;;;;6245999;22;20051;-89
2021/09/04 02:24:38;;;;;;;26.05;17.33;;;11.00;99.90;;;;;;6244708;22;20028;-90
2021/09/04 02:27:26;;;;;;;23.00;17.02;;;11.00;99.90;;;;;;6244457;23;20478;-89
2021/09/04 02:30:13;;;;;;;22.30;16.52;;;11.00;99.90;;;;;;6244580;23;20099;-91
2021/09/04 02:33:05;;;;;;;22.17;16.48;;;10.90;99.90;;;;;;6248212;22;20035;-91
2021/09/04 02:36:01;;;;;;;23.77;16.88;;;10.90;99.90;;;;;;6247428;22;20084;-89
2021/09/04 02:38:50;;;;;;;23.70;17.92;;;11.00;99.90;;;;;;6245093;23;20103;-90
2021/09/04 02:41:37;;;;;;;25.60;16.98;;;11.00;99.90;;;;;;6222419;23;20024;-91
2021/09/04 02:44:24;;;;;;;25.88;17.15;;;11.00;99.90;;;;;;6241357;23;20086;-89
2021/09/04 02:47:11;;;;;;;22.38;17.00;;;11.10;99.90;;;;;;6244767;22;20385;-90
2021/09/04 02:49:59;;;;;;;31.83;19.20;;;11.10;99.90;;;;;;6242562;23;20162;-89
2021/09/04 02:52:47;;;;;;;29.40;19.77;;;11.10;99.90;;;;;;6223619;23;20456;-88
2021/09/04 02:55:34;;;;;;;27.52;19.42;;;11.20;99.90;;;;;;6246274;22;20051;-92
2021/09/04 02:58:21;;;;;;;31.58;19.60;;;11.30;99.90;;;;;;6244382;23;20100;-89
2021/09/04 03:01:08;;;;;;;24.55;18.10;;;11.20;99.90;;;;;;6254208;23;20044;-89
2021/09/04 03:03:57;;;;;;;24.80;17.45;;;11.30;99.90;;;;;;6262011;23;20074;-90
2021/09/04 03:06:44;;;;;;;24.00;17.75;;;11.20;99.90;;;;;;6255088;23;20048;-89
2021/09/04 03:09:31;;;;;;;26.83;17.65;;;11.10;99.90;;;;;;6246700;22;20024;-90
2021/09/04 03:12:21;;;;;;;24.75;17.67;;;11.00;99.90;;;;;;6243901;23;20028;-89
2021/09/04 03:15:10;;;;;;;24.48;16.13;;;11.00;99.90;;;;;;6244002;22;20119;-91
2021/09/04 03:17:57;;;;;;;23.48;15.98;;;10.90;99.90;;;;;;6245344;22;20055;-90
2021/09/04 03:20:45;;;;;;;19.73;15.40;;;10.80;99.90;;;;;;6244164;23;20133;-91
2021/09/04 03:23:32;;;;;;;22.70;14.63;;;10.80;99.90;;;;;;6244377;23;20125;-89
2021/09/04 03:26:19;;;;;;;20.83;14.65;;;10.70;99.90;;;;;;6243639;23;20027;-92
2021/09/04 03:29:06;;;;;;;22.83;15.18;;;10.60;99.90;;;;;;6245791;22;20044;-89
2021/09/04 03:31:56;;;;;;;24.05;17.10;;;10.60;99.90;;;;;;6243284;23;20024;-90
2021/09/04 03:34:44;;;;;;;25.02;16.73;;;10.60;99.90;;;;;;6222167;23;20048;-88
2021/09/04 03:37:31;;;;;;;26.55;18.75;;;10.50;99.90;;;;;;6244933;22;20056;-91
2021/09/04 03:40:18;;;;;;;28.48;19.83;;;10.60;99.90;;;;;;6245987;22;20426;-89
2021/09/04 03:43:08;;;;;;;31.85;20.77;;;10.70;99.90;;;;;;6246406;22;20450;-90
2021/09/04 03:45:55;;;;;;;28.52;18.63;;;10.70;99.90;;;;;;6242881;23;20055;-90
2021/09/04 03:48:43;;;;;;;28.13;19.48;;;10.60;99.90;;;;;;6244093;23;20028;-90
2021/09/04 03:51:30;;;;;;;26.55;18.35;;;10.60;99.90;;;;;;6249470;22;20102;-90
2021/09/04 03:54:17;;;;;;;27.75;19.20;;;10.60;99.90;;;;;;6251456;22;20027;-90
2021/09/04 03:57:06;;;;;;;26.35;18.40;;;10.50;99.90;;;;;;6248980;23;20088;-90
2021/09/04 03:59:56;;;;;;;30.27;19.58;;;10.50;99.90;;;;;;6244080;23;20473;-90
2021/09/04 04:02:48;;;;;;;24.30;17.67;;;10.50;99.90;;;;;;6245529;23;20155;-90
2021/09/04 04:05:46;;;;;;;30.67;18.20;;;10.50;99.90;;;;;;6247975;23;20339;-89
2021/09/04 04:08:36;;;;;;;29.08;19.35;;;10.40;99.90;;;;;;6247019;23;20082;-89
2021/09/04 04:11:24;;;;;;;24.73;18.65;;;10.30;99.90;;;;;;6248501;22;20024;-89
2021/09/04 04:14:12;;;;;;;26.45;17.17;;;10.30;99.90;;;;;;6247748;22;20123;-90
2021/09/04 04:17:02;;;;;;;27.70;18.25;;;10.30;99.90;;;;;;6245843;23;20043;-91
2021/09/04 04:19:49;;;;;;;30.20;19.63;;;10.30;99.90;;;;;;6247417;22;20403;-90
2021/09/04 04:22:40;;;;;;;30.95;19.77;;;10.30;99.90;;;;;;6248592;22;20399;-88
2021/09/04 04:25:27;;;;;;;30.75;19.20;;;10.30;99.90;;;;;;6244142;23;20086;-89
2021/09/04 04:28:14;;;;;;;28.85;18.65;;;10.30;99.90;;;;;;6247329;22;20099;-89
2021/09/04 04:31:03;;;;;;;27.23;18.73;;;10.20;99.90;;;;;;6247090;22;20052;-90
2021/09/04 04:33:50;;;;;;;30.33;20.67;;;10.20;99.90;;;;;;6250109;22;20028;-90
2021/09/04 04:36:38;;;;;;;31.70;20.73;;;10.10;99.90;;;;;;6251479;22;20378;-88
2021/09/04 04:39:25;;;;;;;28.92;20.30;;;10.10;99.90;;;;;;6250560;23;20086;-89
2021/09/04 04:42:13;;;;;;;29.98;20.25;;;10.10;99.90;;;;;;6247675;23;20089;-90
2021/09/04 04:45:00;;;;;;;24.77;18.65;;;10.00;99.90;;;;;;6250327;23;20035;-88
2021/09/04 04:47:48;;;;;;;31.08;20.42;;;10.10;99.90;;;;;;6248202;23;20020;-90
2021/09/04 04:50:35;;;;;;;35.08;20.48;;;10.10;99.90;;;;;;6250233;22;20316;-88
2021/09/04 04:53:23;;;;;;;29.77;18.77;;;10.10;99.90;;;;;;6247500;22;20101;-90
2021/09/04 04:56:15;;;;;;;27.65;18.08;;;10.10;99.90;;;;;;6246353;23;20024;-89
2021/09/04 04:59:02;;;;;;;31.27;18.98;;;10.00;99.90;;;;;;6245770;23;20375;-90
2021/09/04 05:01:49;;;;;;;28.65;20.13;;;10.00;99.90;;;;;;6248426;22;20099;-90
2021/09/04 05:04:39;;;;;;;28.02;20.00;;;10.10;99.90;;;;;;6227705;23;20106;-90
2021/09/04 05:07:26;;;;;;;35.50;23.17;;;10.20;99.90;;;;;;6260333;23;20024;-90
2021/09/04 05:10:15;;;;;;;31.52;21.15;;;10.30;99.90;;;;;;6261419;22;20020;-89
2021/09/04 05:13:03;;;;;;;29.95;19.55;;;10.40;99.90;;;;;;6261924;22;20020;-89
2021/09/04 05:15:50;;;;;;;31.63;21.42;;;10.30;99.90;;;;;;6264486;22;20043;-89
2021/09/04 05:18:37;;;;;;;32.47;23.30;;;10.30;99.90;;;;;;6261879;23;20111;-90
2021/09/04 05:21:28;;;;;;;34.55;22.88;;;10.40;99.90;;;;;;6265807;22;20058;-91
2021/09/04 05:24:15;;;;;;;35.08;22.77;;;10.50;99.90;;;;;;6259245;22;20044;-91
2021/09/04 05:27:03;;;;;;;40.38;24.38;;;10.60;99.90;;;;;;6260268;22;20059;-90
2021/09/04 05:29:50;;;;;;;32.80;22.85;;;10.60;99.90;;;;;;6250320;22;20062;-90
2021/09/04 05:32:38;;;;;;;38.70;24.67;;;10.60;99.90;;;;;;6228062;23;20055;-90
2021/09/04 05:35:25;;;;;;;36.75;24.58;;;10.70;99.90;;;;;;6248096;23;20027;-91
2021/09/04 05:38:13;;;;;;;38.33;25.48;;;10.80;99.90;;;;;;6247761;22;20103;-91
2021/09/04 05:41:00;;;;;;;40.60;26.50;;;10.90;99.90;;;;;;6249338;22;20032;-83
2021/09/04 05:43:49;;;;;;;40.75;26.33;;;11.00;99.90;;;;;;6248539;23;20024;-85
2021/09/04 05:46:37;;;;;;;36.58;23.48;;;11.10;99.90;;;;;;6259054;23;20305;-81
2021/09/04 05:49:24;;;;;;;32.72;21.33;;;11.20;99.90;;;;;;6256388;23;20103;-85
2021/09/04 05:52:12;;;;;;;34.53;20.35;;;11.20;99.90;;;;;;6257110;23;20051;-85
2021/09/04 05:55:01;;;;;;;29.15;20.50;;;11.10;99.90;;;;;;6259469;22;20035;-86
2021/09/04 05:57:51;;;;;;;25.95;18.73;;;11.10;99.90;;;;;;6256791;23;20024;-86
2021/09/04 06:00:38;;;;;;;23.33;16.65;;;11.20;99.90;;;;;;6252144;23;20110;-85
2021/09/04 06:03:29;;;;;;;23.75;17.30;;;11.20;99.90;;;;;;6254091;22;20024;-84
2021/09/04 06:06:19;;;;;;;32.78;18.65;;;11.40;99.90;;;;;;6254559;23;20027;-84
2021/09/04 06:09:07;;;;;;;24.02;19.05;;;11.50;99.90;;;;;;6254090;23;20089;-85
2021/09/04 06:11:54;;;;;;;21.58;17.15;;;11.70;99.90;;;;;;6265646;22;20130;-89
2021/09/04 06:14:42;;;;;;;23.15;14.93;;;11.90;99.90;;;;;;6262163;22;20031;-89
2021/09/04 06:17:29;;;;;;;19.52;14.13;;;11.90;99.90;;;;;;6260753;23;20036;-90
2021/09/04 06:20:17;;;;;;;22.35;15.25;;;12.00;99.90;;;;;;6253957;23;20392;-89
2021/09/04 06:23:05;;;;;;;25.35;15.40;;;12.20;99.90;;;;;;6250651;23;20032;-86
2021/09/04 06:25:52;;;;;;;22.38;16.63;;;12.40;99.90;;;;;;6250204;22;20028;-89
2021/09/04 06:28:40;;;;;;;28.05;15.80;;;12.60;99.90;;;;;;6250633;23;20020;-89
2021/09/04 06:31:27;;;;;;;22.85;13.65;;;12.90;99.90;;;;;;6248048;23;20043;-89
2021/09/04 06:34:18;;;;;;;19.17;13.77;;;13.30;99.90;;;;;;6243576;23;20336;-88
2021/09/04 06:37:05;;;;;;;15.45;11.68;;;13.90;99.90;;;;;;6246579;23;20063;-88
2021/09/04 06:39:52;;;;;;;15.30;11.13;;;14.40;99.90;;;;;;6246002;23;20078;-88
2021/09/04 06:42:40;;;;;;;14.32;11.23;;;14.90;99.90;;;;;;6247753;22;20032;-90
2021/09/04 06:45:27;;;;;;;14.32;10.13;;;15.50;99.90;;;;;;6246037;23;20494;-88
2021/09/04 06:48:14;;;;;;;14.52;10.55;;;16.00;99.90;;;;;;6224825;23;20081;-90
2021/09/04 06:51:01;;;;;;;15.45;11.05;;;16.30;99.90;;;;;;6228789;22;20090;-87
2021/09/04 06:53:48;;;;;;;15.35;10.70;;;16.40;99.90;;;;;;6246822;22;20051;-88
2021/09/04 06:56:36;;;;;;;14.57;10.20;;;16.50;99.90;;;;;;6245013;23;20099;-89
2021/09/04 06:59:23;;;;;;;12.95;9.85;;;16.80;99.90;;;;;;6247177;22;20084;-90
2021/09/04 07:02:11;;;;;;;16.38;10.60;;;17.10;99.90;;;;;;6246984;23;20089;-90
2021/09/04 07:04:59;;;;;;;14.18;9.55;;;17.40;99.90;;;;;;6246681;23;20048;-89
2021/09/04 07:07:48;;;;;;;12.48;9.43;;;17.40;99.90;;;;;;6246184;23;20309;-89
2021/09/04 07:10:36;;;;;;;16.20;10.13;;;17.50;99.90;;;;;;6246189;23;20039;-89
2021/09/04 07:13:24;;;;;;;11.88;9.63;;;17.90;99.90;;;;;;6247546;22;20051;-89
2021/09/04 07:16:11;;;;;;;16.63;10.45;;;17.90;99.90;;;;;;6246823;23;20024;-90
2021/09/04 07:19:00;;;;;;;16.27;9.88;;;18.00;99.90;;;;;;6248399;22;20035;-91
2021/09/04 07:21:48;;;;;;;12.77;9.98;;;18.10;99.90;;;;;;6246726;23;20073;-90
2021/09/04 07:24:38;;;;;;;14.38;9.90;;;17.90;99.90;;;;;;6203350;23;20505;-88
2021/09/04 07:27:25;;;;;;;17.75;10.02;;;17.80;99.90;;;;;;6244470;23;20168;-89
2021/09/04 07:30:16;;;;;;;12.73;9.27;;;17.80;99.90;;;;;;6242362;23;20604;-86
2021/09/04 07:33:05;;;;;;;15.05;10.13;;;17.90;99.90;;;;;;6242991;23;20060;-85
2021/09/04 07:35:53;;;;;;;13.48;10.25;;;17.90;99.90;;;;;;6245096;22;20024;-86
2021/09/04 07:38:41;;;;;;;12.27;9.50;;;17.90;99.90;;;;;;6240687;23;20121;-86
2021/09/04 07:41:28;;;;;;;14.73;10.05;;;18.00;99.90;;;;;;6243812;23;20063;-85
2021/09/04 07:44:17;;;;;;;13.35;9.77;;;18.10;99.90;;;;;;6240826;23;20028;-86
2021/09/04 07:47:05;;;;;;;13.35;10.05;;;18.20;99.90;;;;;;6244279;23;20078;-86
2021/09/04 07:49:52;;;;;;;14.77;10.32;;;18.20;99.90;;;;;;6221739;23;20055;-86
2021/09/04 07:52:39;;;;;;;12.48;9.43;;;18.30;99.90;;;;;;6244674;22;20123;-86
2021/09/04 07:55:27;;;;;;;15.23;9.68;;;18.40;99.90;;;;;;6244092;23;20117;-86
2021/09/04 07:58:14;;;;;;;13.15;9.25;;;18.60;99.90;;;;;;6242334;23;20107;-86
2021/09/04 08:01:01;;;;;;;12.77;8.90;;;18.70;99.90;;;;;;6245280;23;20086;-86
2021/09/04 08:03:51;;;;;;;12.05;8.20;;;19.00;99.90;;;;;;6244374;23;20028;-87
2021/09/04 08:06:38;;;;;;;11.80;8.63;;;19.80;99.90;;;;;;6243151;23;20032;-87
2021/09/04 08:09:28;;;;;;;15.40;8.55;;;20.80;99.90;;;;;;6223434;23;20172;-86
2021/09/04 08:12:15;;;;;;;12.50;8.10;;;21.80;99.90;;;;;;6243596;23;20020;-86
2021/09/04 08:15:06;;;;;;;8.88;7.20;;;22.50;99.90;;;;;;6243915;23;20031;-88
2021/09/04 08:17:53;;;;;;;10.35;7.53;;;23.40;99.40;;;;;;6243487;23;20103;-87
2021/09/04 08:20:43;;;;;;;9.68;7.47;;;24.10;97.80;;;;;;6243563;23;20416;-85
2021/09/04 08:23:32;;;;;;;9.18;6.95;;;24.90;91.80;;;;;;6244469;22;20028;-88
2021/09/04 08:26:20;;;;;;;11.73;6.68;;;25.40;89.40;;;;;;6245570;22;20024;-87
2021/09/04 08:29:07;;;;;;;10.25;7.53;;;26.10;85.50;;;;;;6243208;23;20109;-86
2021/09/04 08:31:57;;;;;;;8.20;6.20;;;26.50;77.90;;;;;;6245125;23;20478;-87
2021/09/04 08:34:47;;;;;;;9.55;6.80;;;26.70;77.80;;;;;;6247694;23;20070;-86
2021/09/04 08:38:08;;;;;;;7.43;6.07;;;27.20;74.30;;;;;;6245164;23;20027;-88
2021/09/04 08:40:59;;;;;;;11.63;6.03;;;28.00;71.50;;;;;;6245348;23;20032;-87
2021/09/04 08:43:50;;;;;;;7.80;6.68;;;28.10;67.20;;;;;;6244800;23;20043;-86
2021/09/04 08:46:40;;;;;;;7.93;6.53;;;28.00;69.80;;;;;;6242157;23;20024;-89
2021/09/04 08:49:34;;;;;;;8.80;6.22;;;28.10;70.30;;;;;;6245860;22;20088;-89
2021/09/04 08:52:21;;;;;;;7.82;5.95;;;28.50;69.10;;;;;;6244283;23;20032;-89
2021/09/04 08:55:09;;;;;;;8.13;5.75;;;29.20;62.30;;;;;;6244917;22;20036;-90
2021/09/04 08:57:56;;;;;;;7.80;6.03;;;29.60;61.00;;;;;;6244548;23;20101;-87
2021/09/04 09:00:47;;;;;;;7.93;6.10;;;29.70;59.90;;;;;;6243435;23;20063;-87
2021/09/04 09:04:03;;;;;;;6.68;5.97;;;29.20;61.00;;;;;;6247067;22;20028;-90
2021/09/04 09:07:01;;;;;;;7.97;6.57;;;29.30;59.40;;;;;;6246786;23;20059;-89
2021/09/04 09:10:04;;;;;;;8.07;5.65;;;29.60;57.80;;;;;;6244950;23;20103;-89
2021/09/04 09:13:18;;;;;;;9.02;6.20;;;29.30;57.50;;;;;;6250047;23;20063;-89
2021/09/04 09:16:17;;;;;;;8.98;5.80;;;29.30;62.70;;;;;;6259239;23;20082;-90
2021/09/04 09:19:07;;;;;;;7.95;6.57;;;30.30;55.70;;;;;;6250541;23;20022;-89
2021/09/04 09:21:58;;;;;;;8.48;6.90;;;30.10;57.00;;;;;;6244201;23;20127;-89
2021/09/04 09:24:45;;;;;;;7.53;6.57;;;30.00;57.80;;;;;;6244425;23;20024;-87
2021/09/04 09:28:15;;;;;;;10.57;7.13;;;30.20;56.60;;;;;;6245663;23;20386;-88
2021/09/04 09:31:17;;;;;;;8.73;7.43;;;30.00;56.50;;;;;;6251282;23;20091;-88
2021/09/04 09:34:13;;;;;;;7.50;6.60;;;30.30;56.30;;;;;;6256585;23;20016;-86
2021/09/04 09:37:01;;;;;;;7.53;6.65;;;30.90;53.20;;;;;;6252742;23;20040;-89
2021/09/04 09:40:20;;;;;;;9.80;8.38;;;31.00;55.30;;;;;;6244655;23;20024;-89
2021/09/04 09:43:26;;;;;;;9.77;6.40;;;30.80;52.20;;;;;;6247127;23;20072;-90
2021/09/04 09:46:18;;;;;;;5.80;5.20;;;31.00;52.20;;;;;;6244919;22;20084;-86
2021/09/04 09:49:11;;;;;;;7.25;5.40;;;31.50;51.30;;;;;;6243851;22;20093;-87
2021/09/04 09:52:07;;;;;;;6.25;5.35;;;31.90;48.10;;;;;;6243599;23;20036;-85
2021/09/04 09:54:58;;;;;;;7.38;5.32;;;31.90;48.80;;;;;;6245391;22;20024;-85
2021/09/04 09:58:09;;;;;;;6.13;4.68;;;31.70;49.70;;;;;;6243954;22;20032;-85
2021/09/04 10:00:59;;;;;;;6.28;4.97;;;31.60;46.00;;;;;;6244543;23;20134;-86
2021/09/04 10:03:47;;;;;;;4.70;4.20;;;31.80;45.00;;;;;;6244142;22;20027;-85
2021/09/04 10:06:43;;;;;;;4.80;4.38;;;32.00;48.20;;;;;;6243756;23;20126;-85
2021/09/04 10:09:31;;;;;;;6.28;4.45;;;32.10;47.80;;;;;;6242427;23;20028;-86
2021/09/04 10:12:19;;;;;;;6.20;4.35;;;32.70;47.10;;;;;;6242157;23;20031;-86
2021/09/04 10:15:14;;;;;;;6.97;4.72;;;32.50;47.40;;;;;;6242057;23;20023;-87
2021/09/04 10:18:08;;;;;;;5.47;4.93;;;32.90;45.40;;;;;;6241963;23;20124;-88
2021/09/04 10:21:12;;;;;;;5.57;4.95;;;33.10;44.80;;;;;;6242306;23;20024;-86
2021/09/04 10:23:59;;;;;;;7.82;4.82;;;33.40;44.80;;;;;;6241666;23;20679;-85
2021/09/04 10:26:58;;;;;;;5.28;4.75;;;33.20;44.80;;;;;;6241581;23;20111;-85
2021/09/04 10:29:46;;;;;;;7.50;5.28;;;33.40;44.50;;;;;;6242127;23;20020;-84
2021/09/04 10:32:34;;;;;;;5.80;5.20;;;33.30;43.00;;;;;;6240976;23;20071;-84
2021/09/04 10:35:54;;;;;;;6.93;4.43;;;32.80;42.80;;;;;;6244836;23;20035;-84
2021/09/04 10:38:42;;;;;;;5.38;4.25;;;32.10;45.00;;;;;;6244715;23;20040;-86
2021/09/04 10:41:35;;;;;;;5.47;4.55;;;32.10;45.20;;;;;;6246893;22;20024;-85
2021/09/04 10:44:24;;;;;;;5.35;4.05;;;32.30;46.20;;;;;;6242752;23;20027;-86
2021/09/04 10:47:12;;;;;;;4.85;3.92;;;33.20;42.10;;;;;;6242658;23;20106;-85
2021/09/04 10:50:14;;;;;;;6.47;4.82;;;33.40;46.50;;;;;;6246805;22;20450;-86
2021/09/04 10:53:07;;;;;;;5.60;4.72;;;32.90;41.80;;;;;;6248382;23;20066;-85
2021/09/04 10:56:25;;;;;;;5.18;4.22;;;32.60;39.90;;;;;;6250183;23;20031;-87
2021/09/04 10:59:12;;;;;;;8.55;4.88;;;33.30;42.80;;;;;;6247882;23;20032;-86
2021/09/04 11:02:01;;;;;;;7.35;4.57;;;33.00;42.40;;;;;;6243323;23;20060;-86
2021/09/04 11:05:00;;;;;;;6.25;4.47;;;32.30;43.40;;;;;;6245939;23;20025;-86
2021/09/04 11:07:47;;;;;;;6.38;4.97;;;32.60;43.50;;;;;;6241778;23;20032;-86
2021/09/04 11:10:39;;;;;;;7.53;4.55;;;32.10;42.50;;;;;;6244017;22;20035;-85
2021/09/04 11:13:40;;;;;;;4.88;4.45;;;32.70;41.80;;;;;;6242190;23;20100;-87
2021/09/04 11:16:52;;;;;;;4.75;4.25;;;33.00;40.60;;;;;;6241123;23;20105;-86
2021/09/04 11:19:40;;;;;;;4.78;3.80;;;33.40;41.20;;;;;;6243203;23;20107;-85
2021/09/04 11:22:28;;;;;;;4.15;3.80;;;33.90;40.90;;;;;;6242643;23;20051;-86
2021/09/04 11:25:19;;;;;;;4.53;4.13;;;34.60;38.30;;;;;;6240104;23;20082;-87
2021/09/04 11:28:07;;;;;;;7.63;4.38;;;35.30;38.80;;;;;;6242053;23;20170;-85
2021/09/04 11:30:54;;;;;;;5.80;4.18;;;35.40;37.10;;;;;;6242273;23;20055;-86
2021/09/04 11:33:50;;;;;;;4.53;4.13;;;34.60;37.60;;;;;;6241842;23;20085;-84
2021/09/04 11:36:37;;;;;;;5.07;3.30;;;34.10;36.80;;;;;;6243756;22;20093;-85
2021/09/04 11:39:38;;;;;;;4.45;3.97;;;34.00;38.50;;;;;;6241871;23;20051;-84
2021/09/04 11:42:30;;;;;;;4.85;4.10;;;34.10;39.00;;;;;;6242924;23;20031;-86
2021/09/04 11:45:20;;;;;;;5.05;3.95;;;34.30;36.70;;;;;;6240977;23;20040;-85
2021/09/04 11:48:09;;;;;;;5.35;3.60;;;34.10;37.80;;;;;;6241812;23;20066;-85
2021/09/04 11:51:07;;;;;;;4.10;3.30;;;35.00;36.90;;;;;;6242895;23;20032;-85
2021/09/04 11:54:01;;;;;;;4.35;3.20;;;35.60;35.90;;;;;;6240720;23;20319;-85
2021/09/04 11:56:48;;;;;;;3.92;3.55;;;35.90;33.00;;;;;;6241875;23;20109;-84
2021/09/04 11:59:35;;;;;;;7.13;3.40;;;35.80;30.80;;;;;;6241895;23;20126;-84
2021/09/04 12:02:25;;;;;;;4.38;3.33;;;35.10;32.80;;;;;;6242153;23;20056;-84
2021/09/04 12:05:14;;;;;;;4.40;3.35;;;35.10;31.40;;;;;;6242551;22;20537;-85
2021/09/04 12:08:15;;;;;;;5.53;3.55;;;34.80;33.90;;;;;;6241428;23;20035;-85
2021/09/04 12:11:06;;;;;;;3.42;3.13;;;35.80;35.50;;;;;;6242758;23;20032;-85
2021/09/04 12:13:56;;;;;;;4.63;2.97;;;36.80;29.60;;;;;;6243420;22;20431;-85
2021/09/04 12:16:43;;;;;;;5.40;3.85;;;36.30;32.00;;;;;;6243506;22;20032;-85
2021/09/04 12:19:37;;;;;;;4.28;3.55;;;36.50;32.50;;;;;;6241677;23;20127;-85
2021/09/04 12:22:33;;;;;;;3.92;3.53;;;36.90;29.60;;;;;;6241876;23;20032;-85
2021/09/04 12:25:32;;;;;;;5.57;3.40;;;36.40;32.90;;;;;;6241951;23;20407;-85
2021/09/04 12:28:26;;;;;;;6.88;3.20;;;36.30;31.50;;;;;;6243462;23;20048;-86
2021/09/04 12:31:15;;;;;;;4.07;3.30;;;36.60;30.00;;;;;;6242271;23;20423;-85
2021/09/04 12:34:03;;;;;;;4.00;3.00;;;37.70;29.20;;;;;;6244157;23;20243;-85
2021/09/04 12:36:51;;;;;;;4.53;3.20;;;37.50;29.60;;;;;;6243533;23;20307;-85
2021/09/04 12:39:40;;;;;;;4.25;3.38;;;36.90;31.30;;;;;;6243398;23;20138;-85
2021/09/04 12:42:28;;;;;;;6.75;3.05;;;36.60;30.90;;;;;;6243308;23;20403;-85
2021/09/04 12:45:18;;;;;;;4.28;2.60;;;37.10;29.20;;;;;;6242269;23;20112;-85
2021/09/04 12:48:06;;;;;;;7.03;3.20;;;36.60;28.90;;;;;;6239465;23;20035;-83
2021/09/04 12:56:08;;;;;;;4.55;3.30;;;36.60;29.40;;;;;;6152158;23;20040;-85
2021/09/04 12:59:03;;;;;;;4.60;3.70;;;36.10;29.00;;;;;;6238604;22;20063;-87
2021/09/04 13:01:51;;;;;;;4.43;3.17;;;36.10;28.60;;;;;;6246969;23;20028;-85
2021/09/04 13:04:40;;;;;;;3.63;3.33;;;36.20;27.20;;;;;;6251797;23;20034;-86
2021/09/04 13:07:42;;;;;;;3.88;3.13;;;36.20;28.00;;;;;;6252226;23;20115;-85
2021/09/04 13:10:32;;;;;;;;;;;36.00;28.40;;;;;;6245215;23;20024;-87
2021/09/04 13:13:19;;;;;;;3.47;3.13;;;35.50;29.80;;;;;;6247818;22;19915;-87
2021/09/04 13:16:10;;;;;;;4.72;3.05;;;36.10;30.80;;;;;;6243067;23;20155;-89
2021/09/04 13:23:02;;;;;;;4.38;3.10;;;36.20;28.80;;;;;;6148938;23;20033;-85
2021/09/04 13:31:23;;;;;;;3.42;3.13;;;36.60;31.10;;;;;;6121961;23;20014;-87
2021/09/04 13:34:20;;;;;;;3.67;3.20;;;36.20;29.40;;;;;;6120471;23;20142;-85
2021/09/04 13:37:57;;;;;;;3.58;3.20;;;35.80;29.00;;;;;;6099203;23;20030;-86
2021/09/04 13:42:28;;;;;;;4.00;3.50;;;35.60;29.10;;;;;;6120600;23;20042;-85
2021/09/04 13:54:09;;;;;;;;;;;;;;;;;;;;;
2021/09/04 13:57:14;;;;;;;4.03;3.28;;;35.40;30.00;;;;;;5950743;24;20020;-88
2021/09/04 14:00:08;;;;;;;5.00;3.08;;;35.70;30.10;;;;;;6029819;23;20122;-89
2021/09/04 14:02:55;;;;;;;3.30;3.00;;;36.60;30.30;;;;;;6065292;23;20034;-86
2021/09/04 14:05:42;;;;;;;4.13;2.95;;;36.80;29.30;;;;;;6172316;23;20193;-88
2021/09/04 14:08:29;;;;;;;3.40;3.10;;;37.10;30.40;;;;;;6212518;23;20095;-87
2021/09/04 14:11:17;;;;;;;4.22;3.25;;;36.40;29.70;;;;;;6212272;23;20021;-87
2021/09/04 14:14:04;;;;;;;3.15;2.78;;;35.90;30.00;;;;;;6212777;23;20028;-87
2021/09/04 14:16:53;;;;;;;4.43;3.20;;;35.90;31.90;;;;;;6213429;23;20099;-86
2021/09/04 14:19:41;;;;;;;4.15;3.42;;;36.20;30.50;;;;;;6190411;23;20056;-87
2021/09/04 14:22:28;;;;;;;3.83;3.45;;;35.70;30.40;;;;;;6212050;23;20470;-86
2021/09/04 14:25:17;;;;;;;6.45;3.95;;;35.30;31.20;;;;;;6189207;23;20052;-87
2021/09/04 14:28:04;;;;;;;7.18;4.10;;;34.80;31.90;;;;;;6212682;23;20158;-87
2021/09/04 14:30:52;;;;;;;5.20;3.42;;;34.30;33.90;;;;;;6212812;23;20028;-87
2021/09/04 14:33:39;;;;;;;7.88;3.65;;;34.80;33.10;;;;;;6190651;23;20040;-87
2021/09/04 14:36:26;;;;;;;4.00;3.60;;;34.90;33.70;;;;;;6213206;23;20036;-87
2021/09/04 14:39:13;;;;;;;5.30;3.42;;;34.90;33.40;;;;;;6212056;23;20133;-86
2021/09/04 14:42:03;;;;;;;5.53;3.60;;;34.50;34.10;;;;;;6211611;23;20086;-87
2021/09/04 14:44:50;;;;;;;5.03;3.47;;;34.40;32.80;;;;;;6192903;23;20035;-85
2021/09/04 14:47:37;;;;;;;4.43;3.10;;;34.20;33.00;;;;;;6215464;23;20298;-86
2021/09/04 14:50:27;;;;;;;6.10;3.70;;;33.90;33.90;;;;;;6191575;23;20028;-87
2021/09/04 14:53:14;;;;;;;6.72;4.00;;;34.20;34.10;;;;;;6213785;23;20292;-87
2021/09/04 14:56:05;;;;;;;4.30;3.67;;;33.80;34.00;;;;;;6213624;23;20043;-87
2021/09/04 14:58:55;;;;;;;4.68;3.58;;;33.50;36.10;;;;;;6213250;23;20084;-87
2021/09/04 15:01:43;;;;;;;5.28;3.88;;;33.20;34.70;;;;;;6216988;23;20432;-89